Terminal Aerodrome Forecast
Issued by NWS Melbourne, FL

Current Version | Previous Version | Text Only | Print | Product List | Glossary On
Versions: 1 2 3 4 5 6 7 8 9 10 11 12 13 14 15 16 17 18 19 20 21 22 23 24 25
000
FTUS42 KMLB 252300
TAFMLB
TAF
KMLB 252331Z 2600/2624 22007KT 5SM RA VCTS SCT030CB BKN040 OVC060
      TEMPO 2600/2601 2SM RA BKN020 OVC040
     FM260200 17010KT P6SM VCSH BKN020
     FM261000 23012KT P6SM VCSH BKN020=

USA.gov is the U.S. government's official web portal to all federal, state and local government web resources and services.